sensor_id;sensor_type;location;lat;lon;timestamp;pressure;altitude;pressure_sealevel;temperature;humidity
46045;BME280;31781;54.094;13.428;2022-12-18T00:04:20;103213.66;;;-5.96;67.96
46045;BME280;31781;54.094;13.428;2022-12-18T00:09:44;103221.94;;;-6.08;67.85
46045;BME280;31781;54.094;13.428;2022-12-18T00:15:08;103227.53;;;-6.19;67.97
46045;BME280;31781;54.094;13.428;2022-12-18T00:20:11;103221.75;;;-6.34;67.91
46045;BME280;31781;54.094;13.428;2022-12-18T00:25:33;103218.28;;;-6.36;67.91
46045;BME280;31781;54.094;13.428;2022-12-18T00:30:37;103228.41;;;-6.52;67.89
46045;BME280;31781;54.094;13.428;2022-12-18T00:35:42;103242.72;;;-6.59;68.01
46045;BME280;31781;54.094;13.428;2022-12-18T00:46:08;103236.56;;;-6.61;68.62
46045;BME280;31781;54.094;13.428;2022-12-18T00:51:11;103242.12;;;-6.70;68.88
46045;BME280;31781;54.094;13.428;2022-12-18T01:01:37;103264.88;;;-6.63;69.37
46045;BME280;31781;54.094;13.428;2022-12-18T01:06:48;103265.94;;;-6.70;69.74
46045;BME280;31781;54.094;13.428;2022-12-18T01:17:11;103275.38;;;-6.60;70.36
46045;BME280;31781;54.094;13.428;2022-12-18T01:22:18;103280.78;;;-6.65;70.77
46045;BME280;31781;54.094;13.428;2022-12-18T01:27:22;103281.59;;;-6.61;71.06
46045;BME280;31781;54.094;13.428;2022-12-18T01:32:44;103271.66;;;-6.52;70.98
46045;BME280;31781;54.094;13.428;2022-12-18T01:37:59;103271.72;;;-6.55;71.12
46045;BME280;31781;54.094;13.428;2022-12-18T01:48:28;103268.75;;;-6.43;71.03
46045;BME280;31781;54.094;13.428;2022-12-18T01:53:31;103272.44;;;-6.48;71.16
46045;BME280;31781;54.094;13.428;2022-12-18T01:58:44;103269.78;;;-6.47;71.06
46045;BME280;31781;54.094;13.428;2022-12-18T02:04:07;103272.41;;;-6.47;71.15
46045;BME280;31781;54.094;13.428;2022-12-18T02:09:24;103277.63;;;-6.44;71.17
46045;BME280;31781;54.094;13.428;2022-12-18T02:14:38;103276.69;;;-6.43;71.16
46045;BME280;31781;54.094;13.428;2022-12-18T02:19:59;103272.34;;;-6.44;71.49
46045;BME280;31781;54.094;13.428;2022-12-18T02:30:31;103279.22;;;-6.36;71.47
46045;BME280;31781;54.094;13.428;2022-12-18T02:35:36;103284.66;;;-6.43;71.75
46045;BME280;31781;54.094;13.428;2022-12-18T03:00:30;103290.00;;;-6.44;71.64
46045;BME280;31781;54.094;13.428;2022-12-18T03:05:37;103298.81;;;-6.44;71.58
46045;BME280;31781;54.094;13.428;2022-12-18T03:21:23;103291.59;;;-6.38;71.21
46045;BME280;31781;54.094;13.428;2022-12-18T03:26:29;103303.25;;;-6.46;71.32
46045;BME280;31781;54.094;13.428;2022-12-18T03:31:40;103305.91;;;-6.46;71.21
46045;BME280;31781;54.094;13.428;2022-12-18T03:47:43;103305.03;;;-6.46;70.90
46045;BME280;31781;54.094;13.428;2022-12-18T03:58:22;103308.66;;;-6.50;70.47
46045;BME280;31781;54.094;13.428;2022-12-18T04:03:28;103319.53;;;-6.61;70.22
46045;BME280;31781;54.094;13.428;2022-12-18T04:08:33;103320.56;;;-6.68;69.95
46045;BME280;31781;54.094;13.428;2022-12-18T04:13:43;103325.94;;;-6.71;69.85
46045;BME280;31781;54.094;13.428;2022-12-18T04:18:48;103322.47;;;-6.73;69.86
46045;BME280;31781;54.094;13.428;2022-12-18T04:23:51;103323.41;;;-6.75;69.61
46045;BME280;31781;54.094;13.428;2022-12-18T04:29:01;103327.91;;;-6.79;69.63
46045;BME280;31781;54.094;13.428;2022-12-18T04:49:58;103363.16;;;-6.77;69.66
46045;BME280;31781;54.094;13.428;2022-12-18T04:55:27;103368.47;;;-6.78;69.66
46045;BME280;31781;54.094;13.428;2022-12-18T05:00:31;103382.75;;;-6.85;69.57
46045;BME280;31781;54.094;13.428;2022-12-18T05:05:35;103378.41;;;-6.88;69.41
46045;BME280;31781;54.094;13.428;2022-12-18T05:16:06;103374.75;;;-6.82;69.56
46045;BME280;31781;54.094;13.428;2022-12-18T05:21:10;103359.97;;;-6.93;69.50
46045;BME280;31781;54.094;13.428;2022-12-18T05:26:33;103365.13;;;-6.86;69.56
46045;BME280;31781;54.094;13.428;2022-12-18T05:31:37;103364.41;;;-6.95;69.54
46045;BME280;31781;54.094;13.428;2022-12-18T05:42:01;103362.56;;;-6.90;69.46
46045;BME280;31781;54.094;13.428;2022-12-18T05:47:04;103357.47;;;-6.99;69.32
46045;BME280;31781;54.094;13.428;2022-12-18T05:52:09;103361.91;;;-7.01;69.24
46045;BME280;31781;54.094;13.428;2022-12-18T06:07:55;103389.16;;;-6.96;69.74
46045;BME280;31781;54.094;13.428;2022-12-18T06:13:01;103390.19;;;-7.03;69.89
46045;BME280;31781;54.094;13.428;2022-12-18T06:18:23;103404.97;;;-6.93;70.04
46045;BME280;31781;54.094;13.428;2022-12-18T06:23:38;103399.75;;;-6.97;70.23
46045;BME280;31781;54.094;13.428;2022-12-18T06:28:42;103403.25;;;-6.95;70.38
46045;BME280;31781;54.094;13.428;2022-12-18T06:34:02;103418.06;;;-6.86;70.39
46045;BME280;31781;54.094;13.428;2022-12-18T06:44:36;103404.75;;;-6.83;70.27
46045;BME280;31781;54.094;13.428;2022-12-18T06:49:42;103396.06;;;-6.90;70.03
46045;BME280;31781;54.094;13.428;2022-12-18T07:00:06;103418.06;;;-6.86;69.85
46045;BME280;31781;54.094;13.428;2022-12-18T07:05:11;103415.56;;;-6.94;69.74
46045;BME280;31781;54.094;13.428;2022-12-18T07:10:17;103420.03;;;-6.96;69.52
46045;BME280;31781;54.094;13.428;2022-12-18T07:15:37;103422.75;;;-6.99;69.50
46045;BME280;31781;54.094;13.428;2022-12-18T07:20:40;103406.88;;;-6.99;69.54
46045;BME280;31781;54.094;13.428;2022-12-18T07:26:01;103419.16;;;-6.97;69.50
46045;BME280;31781;54.094;13.428;2022-12-18T07:31:22;103433.28;;;-6.98;69.46
46045;BME280;31781;54.094;13.428;2022-12-18T07:36:34;103457.31;;;-7.07;69.34
46045;BME280;31781;54.094;13.428;2022-12-18T07:41:37;103462.62;;;-7.08;69.27
46045;BME280;31781;54.094;13.428;2022-12-18T07:47:09;103443.22;;;-7.09;69.36
46045;BME280;31781;54.094;13.428;2022-12-18T07:52:13;103444.97;;;-7.08;69.56
46045;BME280;31781;54.094;13.428;2022-12-18T07:57:17;103434.38;;;-7.08;69.38
46045;BME280;31781;54.094;13.428;2022-12-18T08:02:46;103451.16;;;-7.09;69.37
46045;BME280;31781;54.094;13.428;2022-12-18T08:07:51;103453.78;;;-7.09;69.62
46045;BME280;31781;54.094;13.428;2022-12-18T08:12:57;103452.88;;;-7.06;70.10
46045;BME280;31781;54.094;13.428;2022-12-18T08:18:11;103458.94;;;-7.01;69.80
46045;BME280;31781;54.094;13.428;2022-12-18T08:23:15;103460.66;;;-6.99;69.97
46045;BME280;31781;54.094;13.428;2022-12-18T08:28:39;103465.75;;;-6.90;70.12
46045;BME280;31781;54.094;13.428;2022-12-18T08:39:03;103495.53;;;-6.78;70.54
46045;BME280;31781;54.094;13.428;2022-12-18T08:44:07;103472.59;;;-6.78;70.60
46045;BME280;31781;54.094;13.428;2022-12-18T08:54:32;103490.72;;;-6.60;70.72
46045;BME280;31781;54.094;13.428;2022-12-18T09:21:27;103511.03;;;-6.19;71.11
46045;BME280;31781;54.094;13.428;2022-12-18T09:26:31;103519.69;;;-6.12;71.24
46045;BME280;31781;54.094;13.428;2022-12-18T09:31:35;103524.72;;;-5.99;71.21
46045;BME280;31781;54.094;13.428;2022-12-18T09:36:46;103517.22;;;-5.83;71.25
46045;BME280;31781;54.094;13.428;2022-12-18T09:42:05;103504.09;;;-5.54;71.13
46045;BME280;31781;54.094;13.428;2022-12-18T09:47:12;103524.75;;;-5.31;71.05
46045;BME280;31781;54.094;13.428;2022-12-18T09:52:39;103520.09;;;-4.89;70.97
46045;BME280;31781;54.094;13.428;2022-12-18T09:57:48;103522.13;;;-4.37;70.72
46045;BME280;31781;54.094;13.428;2022-12-18T10:02:55;103510.66;;;-2.55;69.92
46045;BME280;31781;54.094;13.428;2022-12-18T10:13:39;103492.19;;;-0.50;67.83
46045;BME280;31781;54.094;13.428;2022-12-18T10:24:14;103483.44;;;0.38;63.88
46045;BME280;31781;54.094;13.428;2022-12-18T10:29:22;103468.47;;;-0.02;63.16
46045;BME280;31781;54.094;13.428;2022-12-18T10:34:27;103472.53;;;-0.12;60.44
46045;BME280;31781;54.094;13.428;2022-12-18T10:45:01;103456.22;;;1.48;61.51
46045;BME280;31781;54.094;13.428;2022-12-18T10:50:19;103450.53;;;1.69;61.27
46045;BME280;31781;54.094;13.428;2022-12-18T10:55:24;103451.81;;;1.62;60.66
46045;BME280;31781;54.094;13.428;2022-12-18T11:00:35;103447.22;;;1.16;57.98
46045;BME280;31781;54.094;13.428;2022-12-18T11:05:39;103438.16;;;0.51;59.71
46045;BME280;31781;54.094;13.428;2022-12-18T11:10:46;103441.75;;;-0.03;58.82
46045;BME280;31781;54.094;13.428;2022-12-18T11:15:56;103441.53;;;-0.53;60.47
46045;BME280;31781;54.094;13.428;2022-12-18T11:21:05;103448.78;;;-0.94;61.23
46045;BME280;31781;54.094;13.428;2022-12-18T11:26:09;103454.91;;;-1.32;61.27
46045;BME280;31781;54.094;13.428;2022-12-18T11:31:24;103462.56;;;-1.65;61.48
46045;BME280;31781;54.094;13.428;2022-12-18T11:41:54;103463.69;;;-2.14;63.45
46045;BME280;31781;54.094;13.428;2022-12-18T11:52:23;103477.41;;;-2.47;64.69
46045;BME280;31781;54.094;13.428;2022-12-18T11:57:35;103487.69;;;-2.59;65.03
46045;BME280;31781;54.094;13.428;2022-12-18T12:03:00;103480.94;;;-2.23;64.72
46045;BME280;31781;54.094;13.428;2022-12-18T12:08:17;103482.06;;;-2.07;64.91
46045;BME280;31781;54.094;13.428;2022-12-18T12:13:32;103486.28;;;-2.01;65.03
46045;BME280;31781;54.094;13.428;2022-12-18T12:24:20;103472.78;;;-2.18;64.52
46045;BME280;31781;54.094;13.428;2022-12-18T12:29:39;103471.88;;;-2.40;64.76
46045;BME280;31781;54.094;13.428;2022-12-18T12:35:12;103469.78;;;-2.56;65.33
46045;BME280;31781;54.094;13.428;2022-12-18T12:40:24;103482.94;;;-2.74;65.62
46045;BME280;31781;54.094;13.428;2022-12-18T12:45:51;103477.25;;;-2.88;65.83
46045;BME280;31781;54.094;13.428;2022-12-18T12:51:09;103482.03;;;-2.98;66.00
46045;BME280;31781;54.094;13.428;2022-12-18T12:56:16;103486.69;;;-3.05;66.35
46045;BME280;31781;54.094;13.428;2022-12-18T13:01:28;103502.16;;;-3.14;66.37
46045;BME280;31781;54.094;13.428;2022-12-18T13:06:46;103499.62;;;-3.19;66.74
46045;BME280;31781;54.094;13.428;2022-12-18T13:11:53;103482.94;;;-3.24;67.00
46045;BME280;31781;54.094;13.428;2022-12-18T13:17:30;103475.69;;;-3.19;67.07
46045;BME280;31781;54.094;13.428;2022-12-18T13:22:42;103464.25;;;-2.98;67.40
46045;BME280;31781;54.094;13.428;2022-12-18T13:27:59;103470.22;;;-2.91;67.19
46045;BME280;31781;54.094;13.428;2022-12-18T13:39:24;103448.44;;;-3.02;67.05
46045;BME280;31781;54.094;13.428;2022-12-18T13:44:41;103440.03;;;-3.15;66.99
46045;BME280;31781;54.094;13.428;2022-12-18T13:49:44;103439.72;;;-3.30;66.68
46045;BME280;31781;54.094;13.428;2022-12-18T13:54:54;103444.56;;;-3.43;66.87
46045;BME280;31781;54.094;13.428;2022-12-18T14:00:14;103458.31;;;-3.55;67.27
46045;BME280;31781;54.094;13.428;2022-12-18T14:05:22;103437.38;;;-3.66;67.27
46045;BME280;31781;54.094;13.428;2022-12-18T14:10:31;103426.22;;;-3.77;67.47
46045;BME280;31781;54.094;13.428;2022-12-18T14:15:53;103415.69;;;-3.80;67.66
46045;BME280;31781;54.094;13.428;2022-12-18T14:21:03;103416.28;;;-3.97;67.85
46045;BME280;31781;54.094;13.428;2022-12-18T14:26:21;103413.91;;;-4.06;67.91
46045;BME280;31781;54.094;13.428;2022-12-18T14:31:35;103410.59;;;-4.12;68.05
46045;BME280;31781;54.094;13.428;2022-12-18T14:42:10;103401.97;;;-4.20;68.27
46045;BME280;31781;54.094;13.428;2022-12-18T14:47:15;103411.31;;;-4.35;68.34
46045;BME280;31781;54.094;13.428;2022-12-18T14:52:23;103403.69;;;-4.46;68.36
46045;BME280;31781;54.094;13.428;2022-12-18T14:57:36;103409.19;;;-4.52;68.41
46045;BME280;31781;54.094;13.428;2022-12-18T15:02:39;103413.03;;;-4.62;68.53
46045;BME280;31781;54.094;13.428;2022-12-18T15:07:44;103406.16;;;-4.69;68.45
46045;BME280;31781;54.094;13.428;2022-12-18T15:18:12;103405.47;;;-4.74;68.78
46045;BME280;31781;54.094;13.428;2022-12-18T15:23:24;103404.91;;;-4.85;68.91
46045;BME280;31781;54.094;13.428;2022-12-18T15:28:31;103411.22;;;-4.89;69.38
46045;BME280;31781;54.094;13.428;2022-12-18T15:33:45;103406.81;;;-4.90;69.52
46045;BME280;31781;54.094;13.428;2022-12-18T15:39:27;103408.47;;;-4.86;69.63
46045;BME280;31781;54.094;13.428;2022-12-18T15:44:33;103411.34;;;-4.94;70.39
46045;BME280;31781;54.094;13.428;2022-12-18T15:54:57;103427.94;;;-4.85;70.66
46045;BME280;31781;54.094;13.428;2022-12-18T16:00:00;103424.50;;;-4.89;70.89
46045;BME280;31781;54.094;13.428;2022-12-18T16:10:25;103428.59;;;-4.77;71.10
46045;BME280;31781;54.094;13.428;2022-12-18T16:15:29;103411.94;;;-4.84;71.54
46045;BME280;31781;54.094;13.428;2022-12-18T16:20:33;103427.84;;;-4.82;71.29
46045;BME280;31781;54.094;13.428;2022-12-18T16:25:41;103421.62;;;-4.81;71.61
46045;BME280;31781;54.094;13.428;2022-12-18T16:30:44;103417.97;;;-4.77;71.68
46045;BME280;31781;54.094;13.428;2022-12-18T16:35:52;103409.91;;;-4.74;71.74
46045;BME280;31781;54.094;13.428;2022-12-18T16:46:21;103397.97;;;-4.61;71.81
46045;BME280;31781;54.094;13.428;2022-12-18T16:51:25;103414.00;;;-4.64;72.19
46045;BME280;31781;54.094;13.428;2022-12-18T16:56:28;103416.56;;;-4.61;72.33
46045;BME280;31781;54.094;13.428;2022-12-18T17:01:36;103427.13;;;-4.58;72.37
46045;BME280;31781;54.094;13.428;2022-12-18T17:06:41;103418.09;;;-4.53;72.58
46045;BME280;31781;54.094;13.428;2022-12-18T17:11:46;103398.50;;;-4.50;72.65
46045;BME280;31781;54.094;13.428;2022-12-18T17:16:54;103401.03;;;-4.46;72.83
46045;BME280;31781;54.094;13.428;2022-12-18T17:22:17;103393.72;;;-4.39;72.50
46045;BME280;31781;54.094;13.428;2022-12-18T17:27:20;103413.16;;;-4.37;72.79
46045;BME280;31781;54.094;13.428;2022-12-18T17:32:29;103415.72;;;-4.34;72.88
46045;BME280;31781;54.094;13.428;2022-12-18T17:37:32;103417.41;;;-4.31;72.90
46045;BME280;31781;54.094;13.428;2022-12-18T17:42:52;103413.56;;;-4.21;72.52
46045;BME280;31781;54.094;13.428;2022-12-18T17:47:55;103418.94;;;-4.24;72.74
46045;BME280;31781;54.094;13.428;2022-12-18T17:53:00;103417.06;;;-4.21;72.65
46045;BME280;31781;54.094;13.428;2022-12-18T18:08:48;103377.56;;;-4.05;72.37
46045;BME280;31781;54.094;13.428;2022-12-18T18:13:52;103381.31;;;-4.11;72.48
46045;BME280;31781;54.094;13.428;2022-12-18T18:18:58;103360.06;;;-4.12;72.42
46045;BME280;31781;54.094;13.428;2022-12-18T18:24:10;103363.66;;;-4.13;72.62
46045;BME280;31781;54.094;13.428;2022-12-18T18:29:17;103364.47;;;-4.11;72.54
46045;BME280;31781;54.094;13.428;2022-12-18T18:34:24;103347.69;;;-4.13;72.63
46045;BME280;31781;54.094;13.428;2022-12-18T18:39:33;103343.25;;;-4.13;72.69
46045;BME280;31781;54.094;13.428;2022-12-18T18:44:35;103330.88;;;-4.14;72.77
46045;BME280;31781;54.094;13.428;2022-12-18T18:49:38;103321.09;;;-4.13;72.61
46045;BME280;31781;54.094;13.428;2022-12-18T18:54:47;103329.97;;;-4.13;72.58
46045;BME280;31781;54.094;13.428;2022-12-18T19:00:07;103321.69;;;-4.04;72.26
46045;BME280;31781;54.094;13.428;2022-12-18T19:05:14;103314.84;;;-4.11;72.64
46045;BME280;31781;54.094;13.428;2022-12-18T19:10:17;103313.97;;;-4.11;72.82
46045;BME280;31781;54.094;13.428;2022-12-18T19:21:01;103310.09;;;-4.03;72.55
46045;BME280;31781;54.094;13.428;2022-12-18T19:26:07;103300.59;;;-4.10;73.06
46045;BME280;31781;54.094;13.428;2022-12-18T19:31:28;103290.84;;;-4.09;73.20
46045;BME280;31781;54.094;13.428;2022-12-18T19:36:42;103280.22;;;-4.09;73.44
46045;BME280;31781;54.094;13.428;2022-12-18T19:41:45;103289.88;;;-4.07;73.23
46045;BME280;31781;54.094;13.428;2022-12-18T19:46:49;103281.91;;;-4.07;73.53
46045;BME280;31781;54.094;13.428;2022-12-18T19:52:10;103281.56;;;-3.98;73.30
46045;BME280;31781;54.094;13.428;2022-12-18T20:07:55;103277.00;;;-3.94;73.11
46045;BME280;31781;54.094;13.428;2022-12-18T20:12:59;103278.16;;;-4.01;73.77
46045;BME280;31781;54.094;13.428;2022-12-18T20:18:03;103274.59;;;-4.00;73.51
46045;BME280;31781;54.094;13.428;2022-12-18T20:23:12;103272.81;;;-4.00;73.37
46045;BME280;31781;54.094;13.428;2022-12-18T20:38:55;103223.84;;;-3.94;73.23
46045;BME280;31781;54.094;13.428;2022-12-18T20:44:02;103230.25;;;-4.00;73.24
46045;BME280;31781;54.094;13.428;2022-12-18T20:49:08;103227.53;;;-3.98;73.43
46045;BME280;31781;54.094;13.428;2022-12-18T20:54:20;103216.97;;;-4.00;73.06
46045;BME280;31781;54.094;13.428;2022-12-18T20:59:24;103221.41;;;-4.00;73.10
46045;BME280;31781;54.094;13.428;2022-12-18T21:04:27;103217.91;;;-4.02;73.12
46045;BME280;31781;54.094;13.428;2022-12-18T21:14:52;103214.97;;;-3.95;73.00
46045;BME280;31781;54.094;13.428;2022-12-18T21:19:56;103209.03;;;-4.01;73.06
46045;BME280;31781;54.094;13.428;2022-12-18T21:25:16;103210.53;;;-3.94;72.88
46045;BME280;31781;54.094;13.428;2022-12-18T21:30:35;103209.66;;;-3.95;72.95
46045;BME280;31781;54.094;13.428;2022-12-18T21:35:39;103179.81;;;-4.03;73.19
46045;BME280;31781;54.094;13.428;2022-12-18T21:40:44;103163.03;;;-4.03;73.29
46045;BME280;31781;54.094;13.428;2022-12-18T21:45:55;103158.50;;;-4.01;73.00
46045;BME280;31781;54.094;13.428;2022-12-18T21:50:59;103154.19;;;-4.04;73.16
46045;BME280;31781;54.094;13.428;2022-12-18T21:56:02;103162.09;;;-4.02;73.11
46045;BME280;31781;54.094;13.428;2022-12-18T22:01:11;103167.41;;;-4.02;73.03
46045;BME280;31781;54.094;13.428;2022-12-18T22:06:14;103160.28;;;-4.02;73.00
46045;BME280;31781;54.094;13.428;2022-12-18T22:11:17;103150.56;;;-4.03;72.88
46045;BME280;31781;54.094;13.428;2022-12-18T22:16:28;103144.41;;;-4.03;72.90
46045;BME280;31781;54.094;13.428;2022-12-18T22:21:32;103124.84;;;-4.02;72.80
46045;BME280;31781;54.094;13.428;2022-12-18T22:26:36;103120.53;;;-4.05;72.92
46045;BME280;31781;54.094;13.428;2022-12-18T22:31:55;103127.34;;;-3.98;72.84
46045;BME280;31781;54.094;13.428;2022-12-18T22:36:58;103112.50;;;-4.03;72.71
46045;BME280;31781;54.094;13.428;2022-12-18T22:42:17;103105.16;;;-3.97;72.47
46045;BME280;31781;54.094;13.428;2022-12-18T22:47:21;103102.72;;;-4.03;72.58
46045;BME280;31781;54.094;13.428;2022-12-18T22:52:30;103086.72;;;-4.01;72.58
46045;BME280;31781;54.094;13.428;2022-12-18T22:57:52;103066.94;;;-3.94;72.42
46045;BME280;31781;54.094;13.428;2022-12-18T23:03:11;103059.78;;;-3.92;72.37
46045;BME280;31781;54.094;13.428;2022-12-18T23:08:14;103053.81;;;-3.99;72.34
46045;BME280;31781;54.094;13.428;2022-12-18T23:18:39;103021.69;;;-3.92;72.15
46045;BME280;31781;54.094;13.428;2022-12-18T23:23:50;103022.78;;;-3.98;72.18
46045;BME280;31781;54.094;13.428;2022-12-18T23:28:55;103017.41;;;-3.97;71.98
46045;BME280;31781;54.094;13.428;2022-12-18T23:39:20;102987.00;;;-3.89;71.89
46045;BME280;31781;54.094;13.428;2022-12-18T23:49:52;102970.13;;;-3.88;71.86
46045;BME280;31781;54.094;13.428;2022-12-18T23:54:55;102963.25;;;-3.94;71.87
46045;BME280;31781;54.094;13.428;2022-12-18T23:59:59;102944.56;;;-3.92;71.77
